sensor_id;sensor_type;location;lat;lon;timestamp;pressure;altitude;pressure_sealevel;temperature;humidity
41250;BME280;26984;59.928;30.306;2022-09-13T00:01:38;101360.47;;;14.23;100.00
41250;BME280;26984;59.928;30.306;2022-09-13T00:04:06;101352.53;;;14.22;100.00
41250;BME280;26984;59.928;30.306;2022-09-13T00:06:33;101348.38;;;14.19;100.00
41250;BME280;26984;59.928;30.306;2022-09-13T00:09:00;101350.06;;;14.20;100.00
41250;BME280;26984;59.928;30.306;2022-09-13T00:11:29;101344.28;;;14.17;100.00
41250;BME280;26984;59.928;30.306;2022-09-13T00:13:57;101343.66;;;14.14;100.00
41250;BME280;26984;59.928;30.306;2022-09-13T00:16:25;101346.78;;;14.11;100.00
41250;BME280;26984;59.928;30.306;2022-09-13T00:18:53;101353.28;;;14.10;100.00
41250;BME280;26984;59.928;30.306;2022-09-13T00:21:21;101340.34;;;14.12;100.00
41250;BME280;26984;59.928;30.306;2022-09-13T00:23:49;101346.59;;;14.13;100.00
41250;BME280;26984;59.928;30.306;2022-09-13T00:26:18;101348.25;;;14.14;100.00
41250;BME280;26984;59.928;30.306;2022-09-13T00:28:49;101341.16;;;14.13;100.00
41250;BME280;26984;59.928;30.306;2022-09-13T00:31:17;101345.78;;;14.12;100.00
41250;BME280;26984;59.928;30.306;2022-09-13T00:33:45;101343.06;;;14.12;100.00
41250;BME280;26984;59.928;30.306;2022-09-13T00:36:12;101343.50;;;14.09;100.00
41250;BME280;26984;59.928;30.306;2022-09-13T00:38:41;101342.44;;;14.10;100.00
41250;BME280;26984;59.928;30.306;2022-09-13T00:41:10;101341.63;;;14.10;100.00
41250;BME280;26984;59.928;30.306;2022-09-13T00:43:45;101337.84;;;14.11;100.00
41250;BME280;26984;59.928;30.306;2022-09-13T00:46:17;101338.91;;;14.10;100.00
41250;BME280;26984;59.928;30.306;2022-09-13T00:48:46;101342.88;;;14.07;100.00
41250;BME280;26984;59.928;30.306;2022-09-13T00:51:16;101336.78;;;14.12;100.00
41250;BME280;26984;59.928;30.306;2022-09-13T00:53:45;101337.03;;;14.10;100.00
41250;BME280;26984;59.928;30.306;2022-09-13T00:56:14;101335.56;;;14.08;100.00
41250;BME280;26984;59.928;30.306;2022-09-13T00:58:45;101339.09;;;14.08;100.00
41250;BME280;26984;59.928;30.306;2022-09-13T01:01:16;101339.97;;;14.09;100.00
41250;BME280;26984;59.928;30.306;2022-09-13T01:03:46;101332.28;;;14.06;100.00
41250;BME280;26984;59.928;30.306;2022-09-13T01:06:14;101336.00;;;14.05;100.00
41250;BME280;26984;59.928;30.306;2022-09-13T01:08:42;101340.84;;;14.03;100.00
41250;BME280;26984;59.928;30.306;2022-09-13T01:11:14;101336.88;;;14.05;100.00
41250;BME280;26984;59.928;30.306;2022-09-13T01:13:42;101330.59;;;14.05;100.00
41250;BME280;26984;59.928;30.306;2022-09-13T01:16:10;101338.72;;;14.05;100.00
41250;BME280;26984;59.928;30.306;2022-09-13T01:18:39;101340.84;;;14.03;100.00
41250;BME280;26984;59.928;30.306;2022-09-13T01:23:55;101337.91;;;14.04;100.00
41250;BME280;26984;59.928;30.306;2022-09-13T01:32:00;101338.63;;;13.93;100.00
41250;BME280;26984;59.928;30.306;2022-09-13T01:34:33;101330.72;;;13.92;100.00
41250;BME280;26984;59.928;30.306;2022-09-13T01:37:09;101335.53;;;13.89;100.00
41250;BME280;26984;59.928;30.306;2022-09-13T01:39:47;101326.81;;;13.87;100.00
41250;BME280;26984;59.928;30.306;2022-09-13T01:42:20;101319.72;;;13.86;100.00
41250;BME280;26984;59.928;30.306;2022-09-13T01:44:54;101324.69;;;13.89;100.00
41250;BME280;26984;59.928;30.306;2022-09-13T01:47:26;101324.09;;;13.87;100.00
41250;BME280;26984;59.928;30.306;2022-09-13T01:49:58;101327.25;;;13.84;100.00
41250;BME280;26984;59.928;30.306;2022-09-13T01:52:33;101320.16;;;13.83;100.00
41250;BME280;26984;59.928;30.306;2022-09-13T01:55:04;101315.59;;;13.84;100.00
41250;BME280;26984;59.928;30.306;2022-09-13T01:57:35;101316.03;;;13.81;100.00
41250;BME280;26984;59.928;30.306;2022-09-13T02:00:08;101320.38;;;13.82;100.00
41250;BME280;26984;59.928;30.306;2022-09-13T02:02:42;101318.50;;;13.82;100.00
41250;BME280;26984;59.928;30.306;2022-09-13T02:05:13;101315.41;;;13.79;100.00
41250;BME280;26984;59.928;30.306;2022-09-13T02:07:45;101314.34;;;13.80;100.00
41250;BME280;26984;59.928;30.306;2022-09-13T02:10:19;101318.50;;;13.82;100.00
41250;BME280;26984;59.928;30.306;2022-09-13T02:12:48;101301.03;;;13.78;100.00
41250;BME280;26984;59.928;30.306;2022-09-13T02:15:18;101307.53;;;13.77;100.00
41250;BME280;26984;59.928;30.306;2022-09-13T02:17:49;101307.72;;;13.76;100.00
41250;BME280;26984;59.928;30.306;2022-09-13T02:20:20;101310.66;;;13.74;100.00
41250;BME280;26984;59.928;30.306;2022-09-13T02:22:50;101310.03;;;13.72;100.00
41250;BME280;26984;59.928;30.306;2022-09-13T02:25:21;101306.91;;;13.75;100.00
41250;BME280;26984;59.928;30.306;2022-09-13T02:27:50;101302.75;;;13.73;100.00
41250;BME280;26984;59.928;30.306;2022-09-13T02:30:20;101298.19;;;13.73;100.00
41250;BME280;26984;59.928;30.306;2022-09-13T02:32:51;101305.25;;;13.74;100.00
41250;BME280;26984;59.928;30.306;2022-09-13T02:35:20;101306.06;;;13.75;100.00
41250;BME280;26984;59.928;30.306;2022-09-13T02:37:55;101300.03;;;13.73;100.00
41250;BME280;26984;59.928;30.306;2022-09-13T02:40:37;101302.34;;;13.69;100.00
41250;BME280;26984;59.928;30.306;2022-09-13T02:43:07;101298.25;;;13.67;100.00
41250;BME280;26984;59.928;30.306;2022-09-13T02:45:40;101296.16;;;13.62;100.00
41250;BME280;26984;59.928;30.306;2022-09-13T02:48:11;101297.66;;;13.58;100.00
41250;BME280;26984;59.928;30.306;2022-09-13T02:50:45;101290.81;;;13.55;100.00
41250;BME280;26984;59.928;30.306;2022-09-13T02:53:18;101293.50;;;13.55;100.00
41250;BME280;26984;59.928;30.306;2022-09-13T02:55:54;101290.63;;;13.50;100.00
41250;BME280;26984;59.928;30.306;2022-09-13T02:58:24;101294.84;;;13.46;100.00
41250;BME280;26984;59.928;30.306;2022-09-13T03:00:56;101293.19;;;13.45;100.00
41250;BME280;26984;59.928;30.306;2022-09-13T03:03:26;101283.41;;;13.44;100.00
41250;BME280;26984;59.928;30.306;2022-09-13T03:05:54;101295.66;;;13.47;100.00
41250;BME280;26984;59.928;30.306;2022-09-13T03:08:21;101300.66;;;13.50;100.00
41250;BME280;26984;59.928;30.306;2022-09-13T03:10:53;101308.53;;;13.51;100.00
41250;BME280;26984;59.928;30.306;2022-09-13T03:16:11;101298.38;;;13.47;100.00
41250;BME280;26984;59.928;30.306;2022-09-13T03:18:50;101303.81;;;13.40;100.00
41250;BME280;26984;59.928;30.306;2022-09-13T03:21:25;101305.47;;;13.41;100.00
41250;BME280;26984;59.928;30.306;2022-09-13T03:23:57;101307.97;;;13.43;100.00
41250;BME280;26984;59.928;30.306;2022-09-13T03:26:34;101303.25;;;13.38;100.00
41250;BME280;26984;59.928;30.306;2022-09-13T03:29:09;101309.50;;;13.32;100.00
41250;BME280;26984;59.928;30.306;2022-09-13T03:31:42;101307.84;;;13.31;100.00
41250;BME280;26984;59.928;30.306;2022-09-13T03:34:16;101309.94;;;13.29;100.00
41250;BME280;26984;59.928;30.306;2022-09-13T03:36:48;101309.56;;;13.25;100.00
41250;BME280;26984;59.928;30.306;2022-09-13T03:39:20;101302.00;;;13.34;100.00
41250;BME280;26984;59.928;30.306;2022-09-13T03:41:52;101304.50;;;13.35;100.00
41250;BME280;26984;59.928;30.306;2022-09-13T03:44:24;101308.25;;;13.34;100.00
41250;BME280;26984;59.928;30.306;2022-09-13T03:46:55;101306.56;;;13.33;100.00
41250;BME280;26984;59.928;30.306;2022-09-13T03:49:26;101299.91;;;13.36;100.00
41250;BME280;26984;59.928;30.306;2022-09-13T03:51:55;101297.63;;;13.33;100.00
41250;BME280;26984;59.928;30.306;2022-09-13T03:54:23;101294.09;;;13.32;100.00
41250;BME280;26984;59.928;30.306;2022-09-13T03:57:04;101292.22;;;13.33;100.00
41250;BME280;26984;59.928;30.306;2022-09-13T03:59:32;101291.34;;;13.39;100.00
41250;BME280;26984;59.928;30.306;2022-09-13T04:02:03;101292.41;;;13.38;100.00
41250;BME280;26984;59.928;30.306;2022-09-13T04:04:33;101288.84;;;13.37;100.00
41250;BME280;26984;59.928;30.306;2022-09-13T04:07:02;101287.31;;;13.48;100.00
41250;BME280;26984;59.928;30.306;2022-09-13T04:09:30;101288.38;;;13.47;100.00
41250;BME280;26984;59.928;30.306;2022-09-13T04:11:58;101281.06;;;13.48;100.00
41250;BME280;26984;59.928;30.306;2022-09-13T04:14:26;101287.50;;;13.53;100.00
41250;BME280;26984;59.928;30.306;2022-09-13T04:16:53;101284.94;;;13.58;100.00
41250;BME280;26984;59.928;30.306;2022-09-13T04:19:22;101289.09;;;13.61;100.00
41250;BME280;26984;59.928;30.306;2022-09-13T04:21:51;101292.63;;;13.61;100.00
41250;BME280;26984;59.928;30.306;2022-09-13T04:24:19;101284.91;;;13.65;100.00
41250;BME280;26984;59.928;30.306;2022-09-13T04:26:47;101293.34;;;13.75;100.00
41250;BME280;26984;59.928;30.306;2022-09-13T04:29:15;101292.38;;;13.70;100.00
41250;BME280;26984;59.928;30.306;2022-09-13T04:31:43;101296.75;;;13.71;100.00
41250;BME280;26984;59.928;30.306;2022-09-13T04:34:10;101300.66;;;13.75;100.00
41250;BME280;26984;59.928;30.306;2022-09-13T04:36:37;101301.34;;;13.70;100.00
41250;BME280;26984;59.928;30.306;2022-09-13T04:39:06;101294.41;;;13.74;100.00
41250;BME280;26984;59.928;30.306;2022-09-13T04:41:34;101292.25;;;13.83;100.00
41250;BME280;26984;59.928;30.306;2022-09-13T04:44:01;101281.97;;;13.92;100.00
41250;BME280;26984;59.928;30.306;2022-09-13T04:46:29;101279.09;;;13.86;100.00
41250;BME280;26984;59.928;30.306;2022-09-13T04:48:56;101284.31;;;13.88;100.00
41250;BME280;26984;59.928;30.306;2022-09-13T04:51:23;101281.81;;;13.86;100.00
41250;BME280;26984;59.928;30.306;2022-09-13T04:53:51;101283.88;;;13.91;100.00
41250;BME280;26984;59.928;30.306;2022-09-13T04:56:20;101277.97;;;13.94;100.00
41250;BME280;26984;59.928;30.306;2022-09-13T04:58:49;101279.03;;;13.93;100.00
41250;BME280;26984;59.928;30.306;2022-09-13T05:01:16;101283.78;;;13.98;100.00
41250;BME280;26984;59.928;30.306;2022-09-13T05:03:44;101283.34;;;14.01;100.00
41250;BME280;26984;59.928;30.306;2022-09-13T05:06:12;101282.06;;;14.03;100.00
41250;BME280;26984;59.928;30.306;2022-09-13T05:08:44;101282.84;;;14.10;100.00
41250;BME280;26984;59.928;30.306;2022-09-13T05:11:11;101277.34;;;14.17;100.00
41250;BME280;26984;59.928;30.306;2022-09-13T05:13:40;101278.09;;;14.24;100.00
41250;BME280;26984;59.928;30.306;2022-09-13T05:16:07;101276.22;;;14.25;100.00
41250;BME280;26984;59.928;30.306;2022-09-13T05:18:35;101280.13;;;14.29;100.00
41250;BME280;26984;59.928;30.306;2022-09-13T05:21:03;101282.16;;;14.33;100.00
41250;BME280;26984;59.928;30.306;2022-09-13T05:23:31;101272.94;;;14.41;100.00
41250;BME280;26984;59.928;30.306;2022-09-13T05:25:59;101275.63;;;14.41;100.00
41250;BME280;26984;59.928;30.306;2022-09-13T05:28:27;101264.94;;;14.46;100.00
41250;BME280;26984;59.928;30.306;2022-09-13T05:30:57;101275.94;;;14.51;100.00
41250;BME280;26984;59.928;30.306;2022-09-13T05:33:25;101273.75;;;14.60;100.00
41250;BME280;26984;59.928;30.306;2022-09-13T05:35:52;101271.56;;;14.69;100.00
41250;BME280;26984;59.928;30.306;2022-09-13T05:38:26;101274.88;;;14.71;100.00
41250;BME280;26984;59.928;30.306;2022-09-13T05:40:56;101269.69;;;14.69;100.00
41250;BME280;26984;59.928;30.306;2022-09-13T05:43:25;101270.19;;;14.78;100.00
41250;BME280;26984;59.928;30.306;2022-09-13T05:46:12;101263.88;;;14.84;100.00
41250;BME280;26984;59.928;30.306;2022-09-13T05:48:41;101266.72;;;14.89;100.00
41250;BME280;26984;59.928;30.306;2022-09-13T05:51:11;101258.38;;;14.91;100.00
41250;BME280;26984;59.928;30.306;2022-09-13T05:53:40;101251.78;;;14.98;100.00
41250;BME280;26984;59.928;30.306;2022-09-13T05:56:09;101254.63;;;15.03;100.00
41250;BME280;26984;59.928;30.306;2022-09-13T05:58:38;101252.88;;;15.09;100.00
41250;BME280;26984;59.928;30.306;2022-09-13T06:01:06;101254.28;;;15.12;100.00
41250;BME280;26984;59.928;30.306;2022-09-13T06:03:38;101250.56;;;15.24;100.00
41250;BME280;26984;59.928;30.306;2022-09-13T06:06:07;101246.31;;;15.28;100.00
41250;BME280;26984;59.928;30.306;2022-09-13T06:08:36;101242.22;;;15.38;99.91
41250;BME280;26984;59.928;30.306;2022-09-13T06:11:05;101245.66;;;15.45;99.82
41250;BME280;26984;59.928;30.306;2022-09-13T06:13:34;101248.00;;;15.53;99.32
41250;BME280;26984;59.928;30.306;2022-09-13T06:16:05;101242.94;;;15.56;98.85
41250;BME280;26984;59.928;30.306;2022-09-13T06:18:39;101242.97;;;15.68;97.94
41250;BME280;26984;59.928;30.306;2022-09-13T06:21:08;101241.47;;;15.72;97.42
41250;BME280;26984;59.928;30.306;2022-09-13T06:23:44;101239.69;;;15.78;97.29
41250;BME280;26984;59.928;30.306;2022-09-13T06:26:14;101233.78;;;15.81;96.82
41250;BME280;26984;59.928;30.306;2022-09-13T06:28:46;101239.09;;;15.88;96.32
41250;BME280;26984;59.928;30.306;2022-09-13T06:31:21;101234.84;;;15.92;96.09
41250;BME280;26984;59.928;30.306;2022-09-13T06:33:53;101233.41;;;16.01;95.89
41250;BME280;26984;59.928;30.306;2022-09-13T06:36:22;101231.75;;;16.12;95.43
41250;BME280;26984;59.928;30.306;2022-09-13T06:38:49;101234.66;;;16.22;94.72
41250;BME280;26984;59.928;30.306;2022-09-13T06:41:17;101230.44;;;16.26;94.18
41250;BME280;26984;59.928;30.306;2022-09-13T06:43:46;101229.59;;;16.25;93.99
41250;BME280;26984;59.928;30.306;2022-09-13T06:46:14;101226.38;;;16.28;94.04
41250;BME280;26984;59.928;30.306;2022-09-13T06:48:42;101224.25;;;16.31;93.31
41250;BME280;26984;59.928;30.306;2022-09-13T06:51:12;101229.72;;;16.31;92.86
41250;BME280;26984;59.928;30.306;2022-09-13T06:53:40;101222.38;;;16.31;92.96
41250;BME280;26984;59.928;30.306;2022-09-13T06:56:09;101222.03;;;16.27;93.14
41250;BME280;26984;59.928;30.306;2022-09-13T06:58:38;101224.34;;;16.36;93.04
41250;BME280;26984;59.928;30.306;2022-09-13T07:01:10;101220.00;;;16.35;92.33
41250;BME280;26984;59.928;30.306;2022-09-13T07:03:38;101211.97;;;16.28;92.83
41250;BME280;26984;59.928;30.306;2022-09-13T07:06:10;101218.69;;;16.37;93.01
41250;BME280;26984;59.928;30.306;2022-09-13T07:08:39;101208.03;;;16.47;92.06
41250;BME280;26984;59.928;30.306;2022-09-13T07:11:07;101204.81;;;16.50;92.01
41250;BME280;26984;59.928;30.306;2022-09-13T07:13:34;101209.75;;;16.53;91.08
41250;BME280;26984;59.928;30.306;2022-09-13T07:16:03;101203.41;;;16.48;91.98
41250;BME280;26984;59.928;30.306;2022-09-13T07:18:30;101200.03;;;16.58;91.74
41250;BME280;26984;59.928;30.306;2022-09-13T07:20:58;101195.41;;;16.70;91.53
41250;BME280;26984;59.928;30.306;2022-09-13T07:23:26;101200.09;;;16.86;90.75
41250;BME280;26984;59.928;30.306;2022-09-13T07:25:56;101195.16;;;17.00;90.14
41250;BME280;26984;59.928;30.306;2022-09-13T07:28:27;101189.06;;;17.10;89.16
41250;BME280;26984;59.928;30.306;2022-09-13T07:30:55;101182.22;;;17.24;89.28
41250;BME280;26984;59.928;30.306;2022-09-13T07:33:24;101185.78;;;17.41;87.86
41250;BME280;26984;59.928;30.306;2022-09-13T07:35:55;101181.91;;;17.54;87.77
41250;BME280;26984;59.928;30.306;2022-09-13T07:38:22;101179.63;;;17.68;85.37
41250;BME280;26984;59.928;30.306;2022-09-13T07:40:53;101179.88;;;17.66;85.19
41250;BME280;26984;59.928;30.306;2022-09-13T07:43:24;101168.41;;;17.64;84.99
41250;BME280;26984;59.928;30.306;2022-09-13T07:45:58;101168.28;;;17.54;85.02
41250;BME280;26984;59.928;30.306;2022-09-13T07:48:26;101171.25;;;17.53;85.78
41250;BME280;26984;59.928;30.306;2022-09-13T07:51:00;101160.22;;;17.64;85.43
41250;BME280;26984;59.928;30.306;2022-09-13T07:53:28;101162.91;;;17.76;85.42
41250;BME280;26984;59.928;30.306;2022-09-13T07:55:59;101169.38;;;17.92;84.95
41250;BME280;26984;59.928;30.306;2022-09-13T07:58:28;101161.47;;;18.12;82.67
41250;BME280;26984;59.928;30.306;2022-09-13T08:00:57;101159.88;;;18.16;82.02
41250;BME280;26984;59.928;30.306;2022-09-13T08:03:27;101162.69;;;18.22;81.68
41250;BME280;26984;59.928;30.306;2022-09-13T08:05:55;101164.31;;;18.23;81.90
41250;BME280;26984;59.928;30.306;2022-09-13T08:08:22;101163.31;;;18.29;81.31
41250;BME280;26984;59.928;30.306;2022-09-13T08:10:50;101156.78;;;18.30;80.13
41250;BME280;26984;59.928;30.306;2022-09-13T08:13:17;101161.28;;;18.19;81.17
41250;BME280;26984;59.928;30.306;2022-09-13T08:15:46;101161.28;;;18.19;81.17
41250;BME280;26984;59.928;30.306;2022-09-13T08:18:14;101163.44;;;18.17;80.93
41250;BME280;26984;59.928;30.306;2022-09-13T08:20:42;101161.53;;;18.17;80.98
41250;BME280;26984;59.928;30.306;2022-09-13T08:23:10;101162.06;;;18.14;80.67
41250;BME280;26984;59.928;30.306;2022-09-13T08:25:37;101165.00;;;18.13;79.84
41250;BME280;26984;59.928;30.306;2022-09-13T08:28:05;101160.50;;;18.02;80.64
41250;BME280;26984;59.928;30.306;2022-09-13T08:30:33;101165.06;;;17.96;80.95
41250;BME280;26984;59.928;30.306;2022-09-13T08:33:03;101157.41;;;17.93;81.46
41250;BME280;26984;59.928;30.306;2022-09-13T08:35:31;101164.00;;;17.97;81.78
41250;BME280;26984;59.928;30.306;2022-09-13T08:37:59;101154.88;;;18.08;81.10
41250;BME280;26984;59.928;30.306;2022-09-13T08:40:27;101149.75;;;18.12;80.36
41250;BME280;26984;59.928;30.306;2022-09-13T08:42:57;101162.25;;;18.08;80.51
41250;BME280;26984;59.928;30.306;2022-09-13T08:45:28;101154.16;;;17.96;81.08
41250;BME280;26984;59.928;30.306;2022-09-13T08:47:56;101155.31;;;18.00;81.19
41250;BME280;26984;59.928;30.306;2022-09-13T08:50:27;101159.75;;;18.06;80.63
41250;BME280;26984;59.928;30.306;2022-09-13T08:52:58;101149.75;;;18.12;80.68
41250;BME280;26984;59.928;30.306;2022-09-13T08:55:32;101163.50;;;18.22;80.82
41250;BME280;26984;59.928;30.306;2022-09-13T08:58:03;101148.00;;;18.28;79.53
41250;BME280;26984;59.928;30.306;2022-09-13T09:00:37;101149.69;;;18.29;79.34
41250;BME280;26984;59.928;30.306;2022-09-13T09:03:10;101150.53;;;18.34;79.52
41250;BME280;26984;59.928;30.306;2022-09-13T09:05:45;101135.88;;;18.40;78.64
41250;BME280;26984;59.928;30.306;2022-09-13T09:08:14;101147.94;;;18.45;78.40
41250;BME280;26984;59.928;30.306;2022-09-13T09:10:45;101139.03;;;18.54;77.82
41250;BME280;26984;59.928;30.306;2022-09-13T09:13:15;101131.97;;;18.58;77.40
41250;BME280;26984;59.928;30.306;2022-09-13T09:15:45;101134.44;;;18.60;77.37
41250;BME280;26984;59.928;30.306;2022-09-13T09:18:16;101127.16;;;18.65;76.81
41250;BME280;26984;59.928;30.306;2022-09-13T09:20:46;101137.88;;;18.72;76.62
41250;BME280;26984;59.928;30.306;2022-09-13T09:23:15;101129.19;;;18.75;76.84
41250;BME280;26984;59.928;30.306;2022-09-13T09:25:43;101123.50;;;18.82;75.88
41250;BME280;26984;59.928;30.306;2022-09-13T09:28:11;101131.75;;;18.87;76.12
41250;BME280;26984;59.928;30.306;2022-09-13T09:30:42;101126.91;;;18.99;75.99
41250;BME280;26984;59.928;30.306;2022-09-13T09:33:21;101123.72;;;19.07;74.64
41250;BME280;26984;59.928;30.306;2022-09-13T09:35:55;101121.31;;;19.11;74.75
41250;BME280;26984;59.928;30.306;2022-09-13T09:38:31;101120.50;;;19.16;74.70
41250;BME280;26984;59.928;30.306;2022-09-13T09:40:59;101114.09;;;19.32;73.92
41250;BME280;26984;59.928;30.306;2022-09-13T09:43:29;101107.53;;;19.38;72.77
41250;BME280;26984;59.928;30.306;2022-09-13T09:45:58;101109.44;;;19.32;72.78
41250;BME280;26984;59.928;30.306;2022-09-13T09:48:28;101099.56;;;19.31;72.81
41250;BME280;26984;59.928;30.306;2022-09-13T09:50:59;101102.31;;;19.31;72.65
41250;BME280;26984;59.928;30.306;2022-09-13T09:53:28;101094.88;;;19.22;72.55
41250;BME280;26984;59.928;30.306;2022-09-13T09:55:59;101096.66;;;19.06;74.03
41250;BME280;26984;59.928;30.306;2022-09-13T09:58:35;101089.28;;;19.01;73.49
41250;BME280;26984;59.928;30.306;2022-09-13T10:01:04;101094.69;;;18.96;74.11
41250;BME280;26984;59.928;30.306;2022-09-13T10:03:32;101091.09;;;18.90;74.51
41250;BME280;26984;59.928;30.306;2022-09-13T10:06:06;101089.16;;;18.86;74.13
41250;BME280;26984;59.928;30.306;2022-09-13T10:08:34;101093.44;;;18.77;74.53
41250;BME280;26984;59.928;30.306;2022-09-13T10:11:03;101079.41;;;18.68;74.84
41250;BME280;26984;59.928;30.306;2022-09-13T10:13:31;101070.63;;;18.61;75.59
41250;BME280;26984;59.928;30.306;2022-09-13T10:15:59;101069.25;;;18.63;75.24
41250;BME280;26984;59.928;30.306;2022-09-13T10:18:28;101071.97;;;18.58;75.79
41250;BME280;26984;59.928;30.306;2022-09-13T10:20:59;101070.66;;;18.66;75.25
41250;BME280;26984;59.928;30.306;2022-09-13T10:23:28;101074.09;;;18.56;75.54
41250;BME280;26984;59.928;30.306;2022-09-13T10:26:01;101063.72;;;18.53;75.79
41250;BME280;26984;59.928;30.306;2022-09-13T10:28:31;101065.91;;;18.56;75.19
41250;BME280;26984;59.928;30.306;2022-09-13T10:31:01;101064.25;;;18.50;75.58
41250;BME280;26984;59.928;30.306;2022-09-13T10:33:30;101059.81;;;18.44;76.21
41250;BME280;26984;59.928;30.306;2022-09-13T10:35:59;101055.28;;;18.28;76.71
41250;BME280;26984;59.928;30.306;2022-09-13T10:38:31;101058.53;;;18.25;77.40
41250;BME280;26984;59.928;30.306;2022-09-13T10:41:00;101056.88;;;18.24;77.38
41250;BME280;26984;59.928;30.306;2022-09-13T10:43:32;101052.31;;;18.29;76.99
41250;BME280;26984;59.928;30.306;2022-09-13T10:46:07;101048.81;;;18.34;76.81
41250;BME280;26984;59.928;30.306;2022-09-13T10:48:43;101045.91;;;18.46;75.40
41250;BME280;26984;59.928;30.306;2022-09-13T10:51:17;101044.31;;;18.50;74.67
41250;BME280;26984;59.928;30.306;2022-09-13T10:53:48;101032.06;;;18.52;74.70
41250;BME280;26984;59.928;30.306;2022-09-13T10:56:20;101036.50;;;18.63;73.13
41250;BME280;26984;59.928;30.306;2022-09-13T10:58:48;101046.66;;;18.68;72.81
41250;BME280;26984;59.928;30.306;2022-09-13T11:01:20;101027.94;;;18.82;71.26
41250;BME280;26984;59.928;30.306;2022-09-13T11:03:59;101026.31;;;18.81;71.92
41250;BME280;26984;59.928;30.306;2022-09-13T11:06:29;101026.91;;;18.88;71.75
41250;BME280;26984;59.928;30.306;2022-09-13T11:09:05;101030.75;;;18.92;70.86
41250;BME280;26984;59.928;30.306;2022-09-13T11:11:36;101024.34;;;19.08;68.45
41250;BME280;26984;59.928;30.306;2022-09-13T11:14:10;101027.94;;;19.19;66.80
41250;BME280;26984;59.928;30.306;2022-09-13T11:16:47;101025.22;;;19.24;65.85
41250;BME280;26984;59.928;30.306;2022-09-13T11:19:41;101023.59;;;19.23;65.51
41250;BME280;26984;59.928;30.306;2022-09-13T11:22:21;101020.06;;;19.28;66.12
41250;BME280;26984;59.928;30.306;2022-09-13T11:24:57;101007.03;;;19.40;65.43
41250;BME280;26984;59.928;30.306;2022-09-13T11:27:28;101018.19;;;19.38;65.72
41250;BME280;26984;59.928;30.306;2022-09-13T11:30:07;101014.69;;;19.43;64.30
41250;BME280;26984;59.928;30.306;2022-09-13T11:35:33;101012.25;;;19.52;64.88
41250;BME280;26984;59.928;30.306;2022-09-13T11:38:04;101014.41;;;19.45;63.44
41250;BME280;26984;59.928;30.306;2022-09-13T11:40:42;101003.44;;;19.34;63.58
41250;BME280;26984;59.928;30.306;2022-09-13T11:43:18;101011.63;;;19.29;63.62
41250;BME280;26984;59.928;30.306;2022-09-13T11:45:49;101011.63;;;19.29;64.41
41250;BME280;26984;59.928;30.306;2022-09-13T11:48:24;101005.94;;;19.41;63.26
41250;BME280;26984;59.928;30.306;2022-09-13T11:50:56;101007.31;;;19.49;63.08
41250;BME280;26984;59.928;30.306;2022-09-13T11:53:34;100988.00;;;19.60;62.98
41250;BME280;26984;59.928;30.306;2022-09-13T11:56:05;100997.09;;;19.71;62.10
41250;BME280;26984;59.928;30.306;2022-09-13T11:58:35;100980.69;;;19.71;62.30
41250;BME280;26984;59.928;30.306;2022-09-13T12:01:05;100985.34;;;19.76;61.97
41250;BME280;26984;59.928;30.306;2022-09-13T12:03:36;100994.06;;;19.78;62.05
41250;BME280;26984;59.928;30.306;2022-09-13T12:06:10;100981.81;;;19.85;61.59
41250;BME280;26984;59.928;30.306;2022-09-13T12:08:48;100982.41;;;20.03;60.09
41250;BME280;26984;59.928;30.306;2022-09-13T12:11:18;100982.69;;;20.12;58.69
41250;BME280;26984;59.928;30.306;2022-09-13T12:13:48;100984.84;;;20.09;59.16
41250;BME280;26984;59.928;30.306;2022-09-13T12:16:18;100976.69;;;20.25;58.97
41250;BME280;26984;59.928;30.306;2022-09-13T12:18:48;100983.53;;;20.43;58.10
41250;BME280;26984;59.928;30.306;2022-09-13T12:21:17;100979.97;;;20.63;57.84
41250;BME280;26984;59.928;30.306;2022-09-13T12:23:49;100979.13;;;20.77;56.48
41250;BME280;26984;59.928;30.306;2022-09-13T12:26:21;100974.25;;;20.64;56.33
41250;BME280;26984;59.928;30.306;2022-09-13T12:28:50;100976.41;;;20.47;56.27
41250;BME280;26984;59.928;30.306;2022-09-13T12:31:21;100973.91;;;20.20;56.57
41250;BME280;26984;59.928;30.306;2022-09-13T12:33:48;100974.44;;;19.91;58.27
41250;BME280;26984;59.928;30.306;2022-09-13T12:36:30;100966.19;;;19.81;58.84
41250;BME280;26984;59.928;30.306;2022-09-13T12:39:24;100972.75;;;19.75;59.13
41250;BME280;26984;59.928;30.306;2022-09-13T12:41:59;100970.56;;;19.72;59.19
41250;BME280;26984;59.928;30.306;2022-09-13T12:44:38;100966.16;;;19.66;59.14
41250;BME280;26984;59.928;30.306;2022-09-13T12:47:15;100963.66;;;19.54;59.37
41250;BME280;26984;59.928;30.306;2022-09-13T12:49:51;100958.69;;;19.46;59.85
41250;BME280;26984;59.928;30.306;2022-09-13T12:52:30;100967.97;;;19.40;60.85
41250;BME280;26984;59.928;30.306;2022-09-13T12:57:55;100959.72;;;19.34;60.98
41250;BME280;26984;59.928;30.306;2022-09-13T13:00:27;100967.88;;;19.24;61.46
41250;BME280;26984;59.928;30.306;2022-09-13T13:03:05;100967.00;;;19.13;61.73
41250;BME280;26984;59.928;30.306;2022-09-13T13:05:40;100966.94;;;18.98;61.78
41250;BME280;26984;59.928;30.306;2022-09-13T13:08:18;100967.44;;;18.90;62.01
41250;BME280;26984;59.928;30.306;2022-09-13T13:10:58;100964.34;;;18.81;62.29